In Rescue
 
Open Full Screen Window  High Contrast Mode
Wind Gusting 00 knots
06
September 19, 2019 4:45 PM CDT
Weather Information
Wind Direction
  140 °
Wind Speed
  06 kt (7 mph)
Wind Gust
  00 kt (0 mph)
Altimeter
29.97 in
Visibility
10 SM
Temperature
27° C
81° F
Dewpoint
16° C
61° F
Humidity
51%
1hr Rain Fall
00.00 in.
24hr Rain Fall
00.00 in.
Sky Condition
Scattered @ 3,700 ft
VFR

METAR KRGK 192145Z AUTO 14006KT 10SM SCT037 27/16 A2997 RMK AO2

FAA Disclaimer: The data displayed is for advisory purposes only and is not to be used for flight planning or operations.